createdAt,value
2022-11-16T00:02:21.502Z,8.77
2022-11-16T00:05:27.965Z,9.90
2022-11-16T00:08:31.048Z,8.57
2022-11-16T00:11:33.464Z,8.57
2022-11-16T00:14:36.060Z,8.45
2022-11-16T00:17:37.723Z,9.02
2022-11-16T00:20:39.495Z,9.43
2022-11-16T00:23:41.120Z,7.72
2022-11-16T00:26:42.865Z,7.55
2022-11-16T00:29:44.488Z,6.90
2022-11-16T00:32:46.708Z,8.70
2022-11-16T00:35:48.347Z,8.90
2022-11-16T00:38:52.124Z,8.90
2022-11-16T00:41:54.291Z,7.57
2022-11-16T00:44:56.228Z,8.57
2022-11-16T00:48:00.465Z,8.15
2022-11-16T00:51:03.262Z,7.93
2022-11-16T00:54:05.823Z,7.90
2022-11-16T00:57:10.075Z,7.75
2022-11-16T01:00:12.236Z,7.95
2022-11-16T01:03:13.917Z,8.18
2022-11-16T01:06:16.707Z,9.73
2022-11-16T01:09:18.524Z,9.77
2022-11-16T01:12:22.509Z,8.57
2022-11-16T01:15:25.351Z,8.45
2022-11-16T01:18:27.240Z,7.93
2022-11-16T01:21:28.825Z,9.57
2022-11-16T01:24:30.855Z,7.70
2022-11-16T01:27:33.171Z,8.75
2022-11-16T01:30:37.528Z,8.73
2022-11-16T01:33:43.484Z,9.45
2022-11-16T01:37:03.362Z,8.13
2022-11-16T01:40:08.160Z,8.85
2022-11-16T01:43:18.516Z,8.88
2022-11-16T01:46:21.429Z,8.82
2022-11-16T01:49:25.608Z,7.30
2022-11-16T01:52:32.670Z,9.70
2022-11-16T01:55:35.710Z,8.65
2022-11-16T01:58:47.306Z,9.25
2022-11-16T02:01:55.484Z,7.88
2022-11-16T02:05:00.594Z,8.52
2022-11-16T02:09:03.783Z,8.35
2022-11-16T02:15:27.256Z,9.05
2022-11-16T02:19:11.661Z,7.70
2022-11-16T02:22:31.142Z,7.35
2022-11-16T02:26:11.598Z,7.82
2022-11-16T02:29:22.366Z,8.00
2022-11-16T02:32:32.122Z,6.95
2022-11-16T02:35:38.379Z,7.45
2022-11-16T02:38:49.989Z,6.97
2022-11-16T02:41:53.454Z,6.47
2022-11-16T02:44:55.613Z,7.70
2022-11-16T02:48:00.221Z,8.15
2022-11-16T02:51:03.011Z,7.10
2022-11-16T02:54:09.170Z,6.70
2022-11-16T02:57:28.152Z,7.65
2022-11-16T03:00:32.456Z,7.32
2022-11-16T03:03:38.115Z,6.82
2022-11-16T03:06:43.747Z,7.82
2022-11-16T03:09:47.079Z,6.70
2022-11-16T03:12:49.830Z,6.70
2022-11-16T03:15:53.108Z,8.20
2022-11-16T03:18:56.511Z,6.53
2022-11-16T03:22:00.715Z,8.45
2022-11-16T03:25:03.406Z,7.53
2022-11-16T03:28:07.956Z,6.88
2022-11-16T03:31:16.525Z,7.20
2022-11-16T03:34:20.577Z,7.35
2022-11-16T03:37:23.509Z,6.40
2022-11-16T03:40:26.852Z,6.82
2022-11-16T03:43:28.708Z,5.88
2022-11-16T03:46:30.477Z,6.03
2022-11-16T03:49:32.344Z,6.90
2022-11-16T03:52:35.019Z,6.45
2022-11-16T03:55:37.922Z,6.65
2022-11-16T03:58:39.952Z,7.05
2022-11-16T04:01:44.725Z,7.43
2022-11-16T04:05:07.489Z,6.35
2022-11-16T04:08:33.024Z,6.55
2022-11-16T04:11:54.316Z,6.03
2022-11-16T04:15:15.743Z,7.38
2022-11-16T04:18:36.543Z,8.23
2022-11-16T04:21:59.509Z,7.70
2022-11-16T04:25:10.360Z,6.37
2022-11-16T04:28:16.204Z,7.60
2022-11-16T04:31:42.182Z,6.63
2022-11-16T04:35:05.262Z,7.10
2022-11-16T04:38:06.866Z,8.50
2022-11-16T04:41:30.668Z,7.88
2022-11-16T04:44:55.085Z,9.85
2022-11-16T04:48:00.008Z,7.47
2022-11-16T04:51:05.483Z,6.45
2022-11-16T04:54:08.196Z,9.07
2022-11-16T04:57:10.098Z,8.23
2022-11-16T05:00:12.575Z,4.97
2022-11-16T05:03:14.924Z,7.38
2022-11-16T05:06:17.323Z,8.95
2022-11-16T05:09:19.809Z,7.43
2022-11-16T05:12:26.021Z,7.65
2022-11-16T05:15:31.547Z,8.85
2022-11-16T05:18:34.850Z,8.27
2022-11-16T05:21:38.025Z,5.55
2022-11-16T05:24:40.481Z,7.45
2022-11-16T05:27:42.174Z,7.50
2022-11-16T05:30:45.405Z,6.53
2022-11-16T05:33:49.399Z,6.63
2022-11-16T05:36:52.681Z,6.30
2022-11-16T05:39:54.926Z,6.68
2022-11-16T05:46:05.545Z,4.68
2022-11-16T05:49:07.987Z,5.07
2022-11-16T05:52:10.805Z,5.75
2022-11-16T05:55:14.013Z,5.30
2022-11-16T05:58:18.374Z,5.20
2022-11-16T06:01:20.050Z,5.30
2022-11-16T06:04:24.838Z,6.78
2022-11-16T06:07:29.046Z,6.85
2022-11-16T06:10:30.808Z,7.25
2022-11-16T06:13:33.109Z,5.72
2022-11-16T06:16:36.034Z,6.15
2022-11-16T06:19:42.008Z,6.77
2022-11-16T06:22:43.708Z,6.97
2022-11-16T06:25:46.423Z,5.78
2022-11-16T06:28:48.352Z,7.10
2022-11-16T06:31:49.956Z,6.65
2022-11-16T06:34:51.610Z,6.75
2022-11-16T06:37:53.464Z,7.30
2022-11-16T06:40:57.056Z,7.18
2022-11-16T06:44:01.221Z,7.15
2022-11-16T06:47:08.149Z,8.02
2022-11-16T06:50:10.604Z,7.38
2022-11-16T06:53:13.245Z,6.40
2022-11-16T06:56:16.250Z,6.55
2022-11-16T06:59:23.447Z,7.93
2022-11-16T07:02:26.442Z,6.53
2022-11-16T07:05:28.556Z,5.63
2022-11-16T07:08:30.476Z,7.00
2022-11-16T07:11:32.388Z,5.78
2022-11-16T07:14:34.324Z,6.88
2022-11-16T07:17:38.019Z,5.90
2022-11-16T07:20:39.736Z,5.05
2022-11-16T07:23:41.592Z,5.60
2022-11-16T07:26:45.441Z,4.80
2022-11-16T07:29:51.700Z,5.20
2022-11-16T07:33:18.121Z,5.13
2022-11-16T07:36:55.180Z,5.05
2022-11-16T07:39:57.035Z,5.55
2022-11-16T07:42:59.708Z,3.90
2022-11-16T07:49:38.331Z,5.57
2022-11-16T07:52:47.450Z,6.47
2022-11-16T07:55:54.822Z,4.60
2022-11-16T07:58:59.101Z,7.25
2022-11-16T08:02:00.893Z,6.85
2022-11-16T08:05:02.902Z,6.95
2022-11-16T08:08:04.731Z,5.68
2022-11-16T08:11:10.254Z,6.50
2022-11-16T08:14:12.668Z,5.55
2022-11-16T08:17:14.402Z,6.47
2022-11-16T08:20:16.774Z,7.07
2022-11-16T08:23:18.569Z,5.80
2022-11-16T08:26:22.139Z,6.00
2022-11-16T08:29:31.627Z,5.40
2022-11-16T08:32:33.479Z,5.90
2022-11-16T08:35:35.981Z,6.10
2022-11-16T08:38:37.677Z,5.53
2022-11-16T08:41:42.127Z,6.32
2022-11-16T08:44:44.883Z,5.82
2022-11-16T08:47:49.324Z,5.38
2022-11-16T08:51:15.966Z,5.07
2022-11-16T08:54:14.371Z,5.40
2022-11-16T08:57:17.568Z,4.68
2022-11-16T09:00:22.296Z,4.88
2022-11-16T09:03:23.918Z,5.82
2022-11-16T09:06:26.222Z,5.75
2022-11-16T09:09:27.910Z,3.97
2022-11-16T09:12:29.549Z,6.72
2022-11-16T09:15:31.822Z,4.25
2022-11-16T09:18:34.071Z,6.82
2022-11-16T09:21:37.565Z,6.90
2022-11-16T09:24:39.244Z,7.15
2022-11-16T09:27:41.043Z,5.03
2022-11-16T09:30:43.571Z,3.25
2022-11-16T09:33:47.735Z,6.35
2022-11-16T09:36:49.333Z,5.82
2022-11-16T09:39:50.951Z,6.75
2022-11-16T09:42:59.118Z,6.47
2022-11-16T09:46:00.644Z,6.63
2022-11-16T09:49:10.522Z,6.10
2022-11-16T09:52:38.931Z,3.30
2022-11-16T09:55:47.527Z,1.63
2022-11-16T09:59:07.726Z,6.07
2022-11-16T10:02:28.208Z,3.33
2022-11-16T10:05:32.861Z,5.15
2022-11-16T10:08:34.820Z,4.18
2022-11-16T10:11:45.715Z,5.00
2022-11-16T10:14:50.076Z,4.13
2022-11-16T10:18:09.070Z,4.22
2022-11-16T10:21:13.492Z,5.25
2022-11-16T10:24:34.249Z,7.28
2022-11-16T10:27:49.133Z,5.28
2022-11-16T10:31:09.339Z,4.53
2022-11-16T10:34:16.342Z,4.15
2022-11-16T10:37:18.230Z,3.17
2022-11-16T10:40:39.197Z,5.22
2022-11-16T10:43:42.259Z,3.78
2022-11-16T10:46:45.960Z,4.47
2022-11-16T10:49:57.090Z,5.47
2022-11-16T10:52:59.629Z,2.35
2022-11-16T10:56:17.536Z,4.30
2022-11-16T10:59:19.973Z,3.58
2022-11-16T11:02:24.631Z,4.40
2022-11-16T11:05:26.993Z,6.25
2022-11-16T11:08:32.971Z,5.68
2022-11-16T11:11:53.092Z,1.77
2022-11-16T11:15:06.337Z,1.02
2022-11-16T11:18:11.745Z,3.70
2022-11-16T11:21:21.112Z,3.47
2022-11-16T11:24:44.379Z,2.58
2022-11-16T11:27:44.772Z,2.05
2022-11-16T11:30:53.885Z,3.85
2022-11-16T11:33:56.747Z,2.95
2022-11-16T11:37:00.776Z,3.80
2022-11-16T11:40:05.432Z,1.50
2022-11-16T11:43:21.033Z,5.57
2022-11-16T11:46:42.235Z,1.92
2022-11-16T11:49:52.248Z,2.25
2022-11-16T11:53:05.668Z,3.92
2022-11-16T11:56:09.818Z,3.90
2022-11-16T11:59:15.871Z,4.43
2022-11-16T12:02:36.420Z,1.90
2022-11-16T12:05:45.693Z,0.75
2022-11-16T12:08:53.291Z,2.20
2022-11-16T12:12:16.131Z,4.00
2022-11-16T12:15:36.037Z,2.03
2022-11-16T12:18:50.941Z,3.88
2022-11-16T12:22:10.805Z,3.13
2022-11-16T12:25:35.644Z,1.35
2022-11-16T12:28:51.620Z,2.03
2022-11-16T12:32:04.034Z,0.45
2022-11-16T12:35:05.637Z,1.38
2022-11-16T12:38:24.828Z,3.85
2022-11-16T12:41:43.929Z,5.47
2022-11-16T12:44:45.459Z,1.60
2022-11-16T12:47:56.131Z,5.00
2022-11-16T12:51:03.712Z,3.92
2022-11-16T12:54:05.489Z,3.95
2022-11-16T12:57:07.075Z,1.83
2022-11-16T13:00:10.387Z,5.18
2022-11-16T13:03:14.775Z,1.15
2022-11-16T13:06:18.894Z,1.27
2022-11-16T13:09:23.859Z,4.18
2022-11-16T13:12:26.550Z,2.45
2022-11-16T13:15:33.717Z,0.73
2022-11-16T13:18:37.619Z,2.25
2022-11-16T13:21:48.330Z,4.18
2022-11-16T13:25:14.671Z,1.25
2022-11-16T13:28:23.231Z,3.20
2022-11-16T13:31:34.154Z,2.08
2022-11-16T13:34:37.730Z,0.90
2022-11-16T13:37:39.423Z,3.05
2022-11-16T13:40:41.241Z,4.38
2022-11-16T13:43:48.033Z,4.07
2022-11-16T13:47:06.300Z,3.47
2022-11-16T13:50:16.910Z,2.95
2022-11-16T13:57:00.700Z,2.35
2022-11-16T14:00:02.257Z,3.08
2022-11-16T14:03:17.939Z,3.40
2022-11-16T14:06:19.455Z,2.50
2022-11-16T14:09:39.728Z,1.55
2022-11-16T14:12:41.278Z,0.85
2022-11-16T14:15:42.953Z,1.35
2022-11-16T14:18:45.292Z,2.60
2022-11-16T14:21:57.789Z,1.50
2022-11-16T14:25:05.839Z,3.45
2022-11-16T14:28:12.374Z,3.47
2022-11-16T14:34:17.139Z,2.65
2022-11-16T14:37:21.657Z,3.75
2022-11-16T14:40:23.320Z,0.20
2022-11-16T14:43:28.114Z,4.13
2022-11-16T14:46:34.660Z,3.35
2022-11-16T14:49:37.508Z,1.73
2022-11-16T14:52:47.837Z,3.95
2022-11-16T14:55:49.458Z,3.08
2022-11-16T14:58:52.045Z,3.33
2022-11-16T15:01:53.729Z,2.28
2022-11-16T15:04:55.379Z,2.28
2022-11-16T15:07:58.990Z,3.85
2022-11-16T15:11:00.968Z,2.92
2022-11-16T15:14:02.646Z,4.57
2022-11-16T15:17:07.263Z,3.03
2022-11-16T15:20:22.833Z,2.35
2022-11-16T15:23:29.407Z,3.03
2022-11-16T15:26:32.366Z,2.38
2022-11-16T15:29:34.033Z,2.72
2022-11-16T15:32:38.330Z,3.70
2022-11-16T15:35:40.114Z,2.88
2022-11-16T15:38:41.959Z,2.90
2022-11-16T15:41:43.680Z,2.65
2022-11-16T15:44:45.462Z,2.08
2022-11-16T15:47:47.412Z,3.03
2022-11-16T15:50:57.872Z,2.45
2022-11-16T15:54:20.426Z,3.20
2022-11-16T15:57:23.292Z,2.40
2022-11-16T16:00:25.572Z,3.08
2022-11-16T16:03:28.604Z,1.73
2022-11-16T16:06:48.895Z,2.92
2022-11-16T16:10:10.508Z,2.42
2022-11-16T16:13:23.131Z,3.20
2022-11-16T16:16:24.802Z,2.95
2022-11-16T16:19:42.915Z,2.08
2022-11-16T16:22:44.958Z,3.17
2022-11-16T16:25:50.500Z,3.20
2022-11-16T16:28:52.283Z,2.92
2022-11-16T16:31:54.373Z,2.85
2022-11-16T16:34:57.177Z,3.00
2022-11-16T16:38:00.898Z,2.35
2022-11-16T16:41:04.344Z,2.67
2022-11-16T16:44:11.174Z,3.25
2022-11-16T16:47:13.504Z,2.35
2022-11-16T16:50:15.392Z,2.70
2022-11-16T16:53:17.397Z,2.70
2022-11-16T16:56:19.915Z,9.35
2022-11-16T16:59:21.594Z,4.05
2022-11-16T17:02:25.501Z,3.15
2022-11-16T17:05:27.207Z,3.13
2022-11-16T17:08:35.831Z,2.47
2022-11-16T17:11:37.502Z,2.92
2022-11-16T17:14:39.113Z,2.97
2022-11-16T17:17:42.869Z,3.10
2022-11-16T17:20:45.571Z,3.05
2022-11-16T17:23:47.269Z,3.15
2022-11-16T17:26:49.095Z,3.85
2022-11-16T17:29:50.893Z,3.38
2022-11-16T17:32:52.457Z,3.58
2022-11-16T17:35:54.948Z,3.50
2022-11-16T17:38:56.590Z,3.97
2022-11-16T17:41:58.237Z,3.63
2022-11-16T17:44:59.779Z,3.03
2022-11-16T17:48:01.453Z,4.78
2022-11-16T17:51:03.309Z,3.28
2022-11-16T17:54:05.097Z,3.53
2022-11-16T17:57:06.680Z,4.00
2022-11-16T18:00:09.108Z,3.38
2022-11-16T18:03:10.742Z,3.45
2022-11-16T18:06:13.890Z,4.18
2022-11-16T18:09:15.428Z,3.92
2022-11-16T18:12:17.035Z,4.80
2022-11-16T18:15:39.249Z,4.10
2022-11-16T18:18:40.714Z,3.72
2022-11-16T18:21:42.742Z,3.60
2022-11-16T18:24:44.600Z,7.18
2022-11-16T18:27:49.679Z,5.68
2022-11-16T18:30:51.715Z,4.55
2022-11-16T18:33:53.351Z,2.90
2022-11-16T18:36:55.352Z,4.20
2022-11-16T18:39:56.924Z,3.72
2022-11-16T18:42:58.567Z,5.85
2022-11-16T18:46:00.420Z,4.82
2022-11-16T18:49:02.059Z,3.13
2022-11-16T18:52:03.695Z,2.45
2022-11-16T18:55:05.535Z,4.38
2022-11-16T18:58:22.739Z,4.85
2022-11-16T19:01:29.148Z,4.07
2022-11-16T19:04:30.769Z,3.72
2022-11-16T19:07:32.409Z,3.70
2022-11-16T19:10:38.010Z,3.88
2022-11-16T19:13:40.290Z,4.72
2022-11-16T19:16:51.324Z,5.28
2022-11-16T19:19:57.336Z,4.70
2022-11-16T19:22:59.341Z,3.80
2022-11-16T19:26:02.126Z,3.95
2022-11-16T19:29:04.339Z,4.38
2022-11-16T19:32:05.929Z,3.78
2022-11-16T19:35:10.767Z,4.63
2022-11-16T19:38:12.442Z,4.20
2022-11-16T19:41:14.739Z,4.15
2022-11-16T19:44:16.321Z,3.97
2022-11-16T19:47:18.824Z,3.60
2022-11-16T19:50:21.153Z,3.20
2022-11-16T19:53:22.791Z,4.30
2022-11-16T19:56:24.712Z,3.95
2022-11-16T19:59:26.273Z,3.65
2022-11-16T20:02:27.905Z,4.00
2022-11-16T20:05:30.597Z,3.97
2022-11-16T20:08:32.325Z,6.07
2022-11-16T20:11:34.509Z,5.43
2022-11-16T20:14:36.135Z,3.58
2022-11-16T20:17:37.700Z,4.80
2022-11-16T20:20:39.362Z,4.70
2022-11-16T20:23:40.988Z,4.50
2022-11-16T20:26:46.663Z,4.18
2022-11-16T20:29:48.237Z,2.85
2022-11-16T20:32:49.888Z,3.25
2022-11-16T20:35:51.456Z,4.10
2022-11-16T20:38:53.339Z,4.22
2022-11-16T20:41:54.902Z,3.50
2022-11-16T20:44:56.560Z,4.13
2022-11-16T20:47:58.892Z,3.67
2022-11-16T20:51:00.602Z,5.45
2022-11-16T20:54:02.290Z,9.55
2022-11-16T20:57:04.696Z,15.38
2022-11-16T21:00:06.465Z,7.25
2022-11-16T21:03:08.256Z,4.57
2022-11-16T21:06:10.236Z,2.60
2022-11-16T21:09:12.598Z,7.65
2022-11-16T21:12:32.572Z,5.63
2022-11-16T21:15:34.251Z,3.10
2022-11-16T21:18:35.872Z,3.55
2022-11-16T21:21:38.630Z,5.30
2022-11-16T21:24:40.154Z,4.53
2022-11-16T21:27:41.755Z,5.30
2022-11-16T21:30:53.810Z,3.83
2022-11-16T21:33:55.980Z,1.13
2022-11-16T21:36:57.522Z,4.45
2022-11-16T21:39:59.133Z,5.95
2022-11-16T21:43:00.676Z,13.88
2022-11-16T21:46:03.630Z,6.53
2022-11-16T21:49:05.248Z,6.38
2022-11-16T21:52:06.884Z,3.72
2022-11-16T21:55:08.564Z,3.97
2022-11-16T21:58:10.243Z,3.45
2022-11-16T22:01:12.593Z,4.47
2022-11-16T22:04:32.975Z,5.35
2022-11-16T22:07:36.711Z,4.90
2022-11-16T22:10:38.508Z,4.40
2022-11-16T22:13:40.346Z,4.03
2022-11-16T22:16:41.982Z,3.38
2022-11-16T22:19:43.610Z,3.92
2022-11-16T22:22:45.316Z,3.53
2022-11-16T22:25:46.965Z,3.50
2022-11-16T22:28:48.688Z,4.72
2022-11-16T22:31:50.258Z,4.13
2022-11-16T22:34:52.082Z,3.13
2022-11-16T22:37:53.781Z,3.45
2022-11-16T22:40:56.156Z,3.45
2022-11-16T22:43:57.656Z,2.90
2022-11-16T22:46:59.356Z,2.15
2022-11-16T22:50:01.197Z,2.67
2022-11-16T22:53:02.801Z,2.08
2022-11-16T22:56:05.351Z,1.70
2022-11-16T22:59:07.068Z,1.98
2022-11-16T23:02:08.724Z,2.30
2022-11-16T23:05:10.393Z,1.85
2022-11-16T23:08:12.086Z,2.08
2022-11-16T23:11:36.413Z,1.85
2022-11-16T23:14:56.623Z,2.85
2022-11-16T23:17:58.265Z,2.65
2022-11-16T23:21:18.378Z,2.42
2022-11-16T23:24:38.354Z,1.85
2022-11-16T23:27:39.911Z,1.98
2022-11-16T23:30:41.616Z,1.67
2022-11-16T23:33:46.126Z,1.67
2022-11-16T23:36:47.692Z,1.80
2022-11-16T23:39:49.386Z,1.80
2022-11-16T23:43:10.477Z,2.08
2022-11-16T23:46:12.103Z,1.60
2022-11-16T23:49:18.517Z,2.35
2022-11-16T23:52:20.227Z,1.02
2022-11-16T23:55:23.116Z,3.22
2022-11-16T23:58:24.831Z,2.38
